createdAt,value
2019-02-28T00:00:12.690Z,64.43
2019-02-28T00:01:12.859Z,64.53
2019-02-28T00:02:12.661Z,64.34
2019-02-28T00:03:12.912Z,64.81
2019-02-28T00:04:12.642Z,64.90
2019-02-28T00:05:12.846Z,65.09
2019-02-28T00:06:12.863Z,64.81
2019-02-28T00:07:17.405Z,64.81
2019-02-28T00:08:12.604Z,65.00
2019-02-28T00:09:12.700Z,64.81
2019-02-28T00:10:13.178Z,64.90
2019-02-28T00:11:12.742Z,65.09
2019-02-28T00:12:13.638Z,65.00
2019-02-28T00:13:13.163Z,65.00
2019-02-28T00:14:13.205Z,64.81
2019-02-28T00:15:12.586Z,65.00
2019-02-28T00:16:12.522Z,64.90
2019-02-28T00:17:12.337Z,64.90
2019-02-28T00:18:15.331Z,64.81
2019-02-28T00:19:25.118Z,64.90
2019-02-28T00:21:06.946Z,65.09
2019-02-28T00:22:05.242Z,65.38
2019-02-28T00:24:04.182Z,65.00
2019-02-28T00:25:04.372Z,65.00
2019-02-28T00:26:03.699Z,65.38
2019-02-28T00:27:04.278Z,65.47
2019-02-28T00:28:08.189Z,65.47
2019-02-28T00:29:03.560Z,65.09
2019-02-28T00:30:06.073Z,65.76
2019-02-28T00:31:03.537Z,65.67
2019-02-28T00:32:04.298Z,66.05
2019-02-28T00:33:05.129Z,66.05
2019-02-28T00:34:05.459Z,65.86
2019-02-28T00:35:03.503Z,65.67
2019-02-28T00:36:04.292Z,65.67
2019-02-28T00:37:03.723Z,65.67
2019-02-28T00:38:03.472Z,66.05
2019-02-28T00:39:04.063Z,65.76
2019-02-28T00:41:10.350Z,65.76
2019-02-28T00:42:04.346Z,65.86
2019-02-28T00:43:03.521Z,65.86
2019-02-28T00:44:04.506Z,65.86
2019-02-28T00:45:03.746Z,65.67
2019-02-28T00:46:03.400Z,65.67
2019-02-28T00:47:03.433Z,66.14
2019-02-28T00:48:03.324Z,65.86
2019-02-28T00:49:03.301Z,66.05
2019-02-28T00:50:03.340Z,65.86
2019-02-28T00:51:04.791Z,65.86
2019-02-28T00:52:03.114Z,66.05
2019-02-28T00:53:06.406Z,65.86
2019-02-28T00:54:08.551Z,66.05
2019-02-28T00:55:03.777Z,65.28
2019-02-28T00:56:03.152Z,65.67
2019-02-28T00:57:03.069Z,65.86
2019-02-28T00:58:07.891Z,66.24
2019-02-28T00:59:09.905Z,65.67
2019-02-28T01:00:05.547Z,65.00
2019-02-28T01:01:03.240Z,65.67
2019-02-28T01:02:05.675Z,65.95
2019-02-28T01:03:07.779Z,66.05
2019-02-28T01:04:02.956Z,65.67
2019-02-28T01:05:23.990Z,65.95
2019-02-28T01:06:03.036Z,65.86
2019-02-28T01:07:04.682Z,65.76
2019-02-28T01:08:02.859Z,66.42
2019-02-28T01:09:03.123Z,66.42
2019-02-28T01:10:04.510Z,66.42
2019-02-28T01:11:10.330Z,66.52
2019-02-28T01:12:02.850Z,66.24
2019-02-28T01:13:02.874Z,66.14
2019-02-28T01:14:03.157Z,66.14
2019-02-28T01:18:40.559Z,66.33
2019-02-28T01:19:45.308Z,66.52
2019-02-28T01:20:40.623Z,66.42
2019-02-28T01:21:42.140Z,66.61
2019-02-28T01:22:40.525Z,66.80
2019-02-28T01:25:03.090Z,66.61
2019-02-28T01:26:02.872Z,66.61
2019-02-28T01:27:13.853Z,67.28
2019-02-28T01:28:02.823Z,67.38
2019-02-28T01:29:03.410Z,67.19
2019-02-28T01:30:02.902Z,67.28
2019-02-28T01:31:02.823Z,67.09
2019-02-28T01:32:02.730Z,67.19
2019-02-28T01:33:02.789Z,67.00
2019-02-28T01:34:02.738Z,67.09
2019-02-28T01:35:06.818Z,67.28
2019-02-28T01:36:02.725Z,67.28
2019-02-28T01:37:03.544Z,67.00
2019-02-28T01:38:02.861Z,67.38
2019-02-28T01:39:04.374Z,67.19
2019-02-28T01:40:04.336Z,67.28
2019-02-28T01:42:24.727Z,67.38
2019-02-28T01:43:28.396Z,67.38
2019-02-28T01:44:24.615Z,67.57
2019-02-28T01:45:23.096Z,67.57
2019-02-28T01:46:24.689Z,67.28
2019-02-28T01:47:23.030Z,67.28
2019-02-28T01:48:23.733Z,67.19
2019-02-28T01:49:25.951Z,67.19
2019-02-28T01:50:23.755Z,67.00
2019-02-28T01:51:23.581Z,67.00
2019-02-28T01:52:22.962Z,67.66
2019-02-28T01:53:29.631Z,67.66
2019-02-28T01:54:28.486Z,67.38
2019-02-28T01:55:22.988Z,67.28
2019-02-28T01:56:23.010Z,67.85
2019-02-28T01:57:22.841Z,67.76
2019-02-28T01:58:23.010Z,67.94
2019-02-28T01:59:23.768Z,68.13
2019-02-28T02:00:23.832Z,67.85
2019-02-28T02:01:22.909Z,68.04
2019-02-28T02:02:22.936Z,67.47
2019-02-28T02:04:45.791Z,68.04
2019-02-28T02:05:43.882Z,67.38
2019-02-28T02:07:48.808Z,67.94
2019-02-28T02:08:51.198Z,67.57
2019-02-28T02:09:48.658Z,67.94
2019-02-28T02:10:48.704Z,68.04
2019-02-28T02:12:48.444Z,68.52
2019-02-28T02:13:48.655Z,68.33
2019-02-28T02:14:49.132Z,68.61
2019-02-28T02:15:53.345Z,68.23
2019-02-28T02:16:55.287Z,68.52
2019-02-28T02:17:48.452Z,68.99
2019-02-28T02:19:03.228Z,68.80
2019-02-28T02:19:49.383Z,68.04
2019-02-28T02:20:48.404Z,68.61
2019-02-28T02:21:48.322Z,68.61
2019-02-28T02:22:49.360Z,68.42
2019-02-28T02:23:49.589Z,68.48
2019-02-28T02:24:50.187Z,68.96
2019-02-28T02:25:51.191Z,68.96
2019-02-28T02:26:51.498Z,68.96
2019-02-28T02:27:52.797Z,69.05
2019-02-28T02:28:48.343Z,69.15
2019-02-28T02:29:50.345Z,69.24
2019-02-28T02:30:51.018Z,69.15
2019-02-28T02:31:48.332Z,69.24
2019-02-28T02:32:48.162Z,69.71
2019-02-28T02:33:52.341Z,69.53
2019-02-28T02:34:48.198Z,69.53
2019-02-28T02:35:48.144Z,69.81
2019-02-28T02:36:53.066Z,70.19
2019-02-28T02:37:48.308Z,70.29
2019-02-28T02:38:48.196Z,69.91
2019-02-28T02:39:50.171Z,70.00
2019-02-28T02:40:48.324Z,70.29
2019-02-28T02:41:48.085Z,70.67
2019-02-28T02:42:49.699Z,70.57
2019-02-28T02:43:47.940Z,70.76
2019-02-28T02:44:48.048Z,71.04
2019-02-28T02:45:52.727Z,70.86
2019-02-28T02:46:47.983Z,70.76
2019-02-28T02:47:49.747Z,70.76
2019-02-28T02:48:47.927Z,70.86
2019-02-28T02:49:56.195Z,71.04
2019-02-28T02:50:47.948Z,70.76
2019-02-28T02:51:50.508Z,71.14
2019-02-28T02:52:48.064Z,70.67
2019-02-28T02:53:48.639Z,70.86
2019-02-28T02:54:52.119Z,71.23
2019-02-28T02:55:47.898Z,71.62
2019-02-28T02:56:48.964Z,71.43
2019-02-28T02:58:47.856Z,71.52
2019-02-28T02:59:50.648Z,71.23
2019-02-28T03:00:51.309Z,71.23
2019-02-28T03:01:47.940Z,71.43
2019-02-28T03:02:47.720Z,71.33
2019-02-28T03:04:47.751Z,71.43
2019-02-28T03:05:48.294Z,71.14
2019-02-28T03:06:47.779Z,71.14
2019-02-28T03:07:47.672Z,71.23
2019-02-28T03:08:47.659Z,71.04
2019-02-28T03:09:47.657Z,71.04
2019-02-28T03:10:51.863Z,71.43
2019-02-28T03:11:47.583Z,71.71
2019-02-28T03:12:47.485Z,71.52
2019-02-28T03:13:47.475Z,71.23
2019-02-28T03:14:48.714Z,71.23
2019-02-28T03:15:48.179Z,71.23
2019-02-28T03:19:19.516Z,71.14
2019-02-28T03:20:20.968Z,71.33
2019-02-28T03:21:19.973Z,71.33
2019-02-28T03:22:19.149Z,71.23
2019-02-28T03:23:19.075Z,71.14
2019-02-28T03:24:20.925Z,71.52
2019-02-28T03:25:19.283Z,71.43
2019-02-28T03:26:19.051Z,71.33
2019-02-28T03:27:25.933Z,71.43
2019-02-28T03:28:20.865Z,71.33
2019-02-28T03:29:18.851Z,71.04
2019-02-28T03:30:28.415Z,71.33
2019-02-28T03:31:18.979Z,71.43
2019-02-28T03:32:18.972Z,71.43
2019-02-28T03:33:27.439Z,71.23
2019-02-28T03:35:18.946Z,71.33
2019-02-28T03:36:18.937Z,71.39
2019-02-28T03:37:19.516Z,71.23
2019-02-28T03:38:18.962Z,71.23
2019-02-28T03:39:24.068Z,71.23
2019-02-28T03:40:19.589Z,71.14
2019-02-28T03:41:20.547Z,71.52
2019-02-28T03:42:20.265Z,71.77
2019-02-28T03:43:18.782Z,71.62
2019-02-28T03:44:21.590Z,72.09
2019-02-28T03:45:18.801Z,72.00
2019-02-28T03:46:19.570Z,72.09
2019-02-28T03:47:29.515Z,72.06
2019-02-28T03:48:18.738Z,71.81
2019-02-28T03:49:18.833Z,71.81
2019-02-28T03:50:21.989Z,71.77
2019-02-28T03:51:20.427Z,71.96
2019-02-28T03:52:18.676Z,72.28
2019-02-28T03:53:20.009Z,72.00
2019-02-28T03:54:19.457Z,71.86
2019-02-28T03:55:18.438Z,72.09
2019-02-28T03:56:23.438Z,71.67
2019-02-28T03:57:18.503Z,71.71
2019-02-28T03:58:42.936Z,71.96
2019-02-28T03:59:18.845Z,72.00
2019-02-28T04:00:20.023Z,71.90
2019-02-28T04:01:18.576Z,72.00
2019-02-28T04:02:22.228Z,72.00
2019-02-28T04:03:18.466Z,71.62
2019-02-28T04:04:22.882Z,72.06
2019-02-28T04:05:18.304Z,71.86
2019-02-28T04:06:18.455Z,72.56
2019-02-28T04:07:24.922Z,72.53
2019-02-28T04:08:18.437Z,72.56
2019-02-28T04:09:18.566Z,72.44
2019-02-28T04:10:22.063Z,72.44
2019-02-28T04:11:18.311Z,72.28
2019-02-28T04:12:18.371Z,72.00
2019-02-28T04:13:19.224Z,72.19
2019-02-28T04:14:18.387Z,72.00
2019-02-28T04:15:18.640Z,72.19
2019-02-28T04:16:20.004Z,72.56
2019-02-28T04:17:30.088Z,72.47
2019-02-28T04:18:18.244Z,72.28
2019-02-28T04:19:21.702Z,71.96
2019-02-28T04:20:21.061Z,72.34
2019-02-28T04:21:18.989Z,72.34
2019-02-28T04:22:19.583Z,72.38
2019-02-28T04:23:18.057Z,72.00
2019-02-28T04:24:18.975Z,72.19
2019-02-28T04:25:24.124Z,72.47
2019-02-28T04:27:18.026Z,72.34
2019-02-28T04:28:19.064Z,72.53
2019-02-28T04:29:17.995Z,72.63
2019-02-28T04:30:18.465Z,72.34
2019-02-28T04:31:20.087Z,72.53
2019-02-28T04:32:17.790Z,72.63
2019-02-28T04:33:17.794Z,73.00
2019-02-28T04:34:17.984Z,72.63
2019-02-28T04:35:24.358Z,72.72
2019-02-28T04:36:17.897Z,72.34
2019-02-28T04:37:19.443Z,72.15
2019-02-28T04:38:20.507Z,72.25
2019-02-28T04:39:22.705Z,72.53
2019-02-28T04:41:17.691Z,72.25
2019-02-28T04:42:17.758Z,72.63
2019-02-28T04:43:17.642Z,72.44
2019-02-28T04:44:20.489Z,72.44
2019-02-28T04:45:17.649Z,72.91
2019-02-28T04:46:17.675Z,73.00
2019-02-28T04:47:18.402Z,72.81
2019-02-28T04:48:19.574Z,72.81
2019-02-28T04:49:21.785Z,72.53
2019-02-28T04:50:17.535Z,73.10
2019-02-28T04:52:17.618Z,73.10
2019-02-28T04:53:18.956Z,73.00
2019-02-28T04:54:17.647Z,73.29
2019-02-28T04:55:30.467Z,73.10
2019-02-28T04:56:17.509Z,73.19
2019-02-28T04:57:20.658Z,73.00
2019-02-28T04:58:17.499Z,73.19
2019-02-28T04:59:17.502Z,72.91
2019-02-28T05:00:19.031Z,73.48
2019-02-28T05:01:17.361Z,73.29
2019-02-28T05:02:19.937Z,73.29
2019-02-28T05:03:17.246Z,73.10
2019-02-28T05:04:17.503Z,73.29
2019-02-28T05:05:17.247Z,73.19
2019-02-28T05:06:18.309Z,73.10
2019-02-28T05:07:20.080Z,73.10
2019-02-28T05:08:21.943Z,73.29
2019-02-28T05:09:17.164Z,73.57
2019-02-28T05:10:19.304Z,73.67
2019-02-28T05:11:17.180Z,73.67
2019-02-28T05:12:17.318Z,73.67
2019-02-28T05:13:17.403Z,73.67
2019-02-28T05:14:17.193Z,73.67
2019-02-28T05:15:17.148Z,73.67
2019-02-28T05:16:17.137Z,73.76
2019-02-28T05:17:22.288Z,73.48
2019-02-28T05:18:20.078Z,73.76
2019-02-28T05:19:18.919Z,73.86
2019-02-28T05:20:17.104Z,73.76
2019-02-28T05:21:19.507Z,73.96
2019-02-28T05:22:17.013Z,73.67
2019-02-28T05:23:18.680Z,73.67
2019-02-28T05:24:17.636Z,73.48
2019-02-28T05:26:17.519Z,73.96
2019-02-28T05:27:24.433Z,74.15
2019-02-28T05:28:19.454Z,74.43
2019-02-28T05:29:17.598Z,74.43
2019-02-28T05:30:19.288Z,74.52
2019-02-28T05:31:16.836Z,74.33
2019-02-28T05:32:16.786Z,74.71
2019-02-28T05:33:17.816Z,74.52
2019-02-28T05:34:17.424Z,74.62
2019-02-28T05:35:16.975Z,74.43
2019-02-28T05:36:16.665Z,74.52
2019-02-28T05:37:17.340Z,74.62
2019-02-28T05:39:16.664Z,74.62
2019-02-28T05:40:17.695Z,74.90
2019-02-28T05:41:16.851Z,74.90
2019-02-28T05:42:16.672Z,74.90
2019-02-28T05:43:16.609Z,74.43
2019-02-28T05:44:16.582Z,74.52
2019-02-28T05:45:17.514Z,74.24
2019-02-28T05:46:17.281Z,74.33
2019-02-28T05:47:16.880Z,74.24
2019-02-28T05:48:17.473Z,73.96
2019-02-28T05:49:17.461Z,73.96
2019-02-28T05:52:51.703Z,73.67
2019-02-28T05:53:48.538Z,73.67
2019-02-28T05:57:04.655Z,73.23
2019-02-28T05:58:01.132Z,73.33
2019-02-28T06:00:03.551Z,73.61
2019-02-28T06:01:01.099Z,72.95
2019-02-28T06:02:58.045Z,73.14
2019-02-28T06:04:03.306Z,72.95
2019-02-28T06:06:51.490Z,72.85
2019-02-28T06:08:43.137Z,72.85
2019-02-28T06:09:45.565Z,72.56
2019-02-28T06:11:45.983Z,72.75
2019-02-28T06:12:43.947Z,72.66
2019-02-28T06:14:39.303Z,72.09
2019-02-28T06:15:39.435Z,72.56
2019-02-28T06:17:54.574Z,72.66
2019-02-28T06:18:33.888Z,72.66
2019-02-28T06:20:28.052Z,72.00
2019-02-28T06:21:27.427Z,72.66
2019-02-28T06:22:30.549Z,72.00
2019-02-28T06:23:27.293Z,71.90
2019-02-28T06:24:27.427Z,71.90
2019-02-28T06:25:29.017Z,72.09
2019-02-28T06:26:27.895Z,72.09
2019-02-28T06:27:29.023Z,72.00
2019-02-28T06:28:27.628Z,71.62
2019-02-28T06:29:27.467Z,71.90
2019-02-28T06:30:42.727Z,71.71
2019-02-28T06:31:27.319Z,71.66
2019-02-28T06:32:28.828Z,71.27
2019-02-28T06:33:27.152Z,71.37
2019-02-28T06:34:27.270Z,71.37
2019-02-28T06:35:31.859Z,71.18
2019-02-28T06:36:29.198Z,71.18
2019-02-28T06:37:28.034Z,71.08
2019-02-28T06:38:27.091Z,70.36
2019-02-28T06:39:27.915Z,69.88
2019-02-28T06:40:27.174Z,69.54
2019-02-28T06:41:28.074Z,69.06
2019-02-28T06:42:27.087Z,68.30
2019-02-28T06:43:27.879Z,67.82
2019-02-28T06:44:27.675Z,67.35
2019-02-28T06:45:28.957Z,67.63
2019-02-28T06:46:27.071Z,67.54
2019-02-28T06:47:27.179Z,67.44
2019-02-28T06:48:27.053Z,67.35
2019-02-28T06:49:27.070Z,67.35
2019-02-28T06:50:27.322Z,67.63
2019-02-28T06:51:27.037Z,67.54
2019-02-28T06:52:26.899Z,67.54
2019-02-28T06:53:26.685Z,68.11
2019-02-28T06:54:27.032Z,68.07
2019-02-28T06:55:28.060Z,67.98
2019-02-28T06:56:26.775Z,67.98
2019-02-28T06:57:27.496Z,67.60
2019-02-28T06:58:26.779Z,67.98
2019-02-28T06:59:26.638Z,67.92
2019-02-28T07:00:26.747Z,67.44
2019-02-28T07:02:28.469Z,67.57
2019-02-28T07:03:27.840Z,66.72
2019-02-28T07:04:27.479Z,65.67
2019-02-28T07:05:26.500Z,65.58
2019-02-28T07:07:31.308Z,65.38
2019-02-28T07:08:28.953Z,65.51
2019-02-28T07:09:26.732Z,65.07
2019-02-28T07:10:26.611Z,64.34
2019-02-28T07:11:26.416Z,63.13
2019-02-28T07:12:29.697Z,62.05
2019-02-28T07:13:26.490Z,61.22
2019-02-28T07:14:26.584Z,60.04
2019-02-28T07:15:26.511Z,57.39
2019-02-28T07:16:34.568Z,55.22
2019-02-28T07:17:26.512Z,53.83
2019-02-28T07:18:27.326Z,53.77
2019-02-28T07:19:27.567Z,52.64
2019-02-28T07:20:28.912Z,51.71
2019-02-28T07:21:30.156Z,50.78
2019-02-28T07:22:26.553Z,49.46
2019-02-28T07:23:26.691Z,49.38
2019-02-28T07:24:26.664Z,48.64
2019-02-28T07:26:28.169Z,46.98
2019-02-28T07:27:29.727Z,45.65
2019-02-28T07:28:27.194Z,44.40
2019-02-28T07:29:29.081Z,43.37
2019-02-28T07:30:26.400Z,41.84
2019-02-28T07:31:30.103Z,40.51
2019-02-28T07:32:27.031Z,39.94
2019-02-28T07:33:26.475Z,39.18
2019-02-28T07:34:28.022Z,38.71
2019-02-28T07:35:26.154Z,38.45
2019-02-28T07:36:29.332Z,37.96
2019-02-28T07:37:40.893Z,38.08
2019-02-28T07:38:28.861Z,37.71
2019-02-28T07:39:26.480Z,36.57
2019-02-28T07:40:27.117Z,35.04
2019-02-28T07:41:29.087Z,34.86
2019-02-28T07:43:02.038Z,34.09
2019-02-28T07:43:29.127Z,34.11
2019-02-28T07:44:29.007Z,33.54
2019-02-28T07:45:29.667Z,33.56
2019-02-28T07:46:52.238Z,32.70
2019-02-28T07:47:41.091Z,32.21
2019-02-28T07:50:03.956Z,30.40
2019-02-28T07:51:01.196Z,30.22
2019-02-28T07:51:59.245Z,30.14
2019-02-28T07:52:58.585Z,28.79
2019-02-28T07:53:58.560Z,28.61
2019-02-28T07:55:06.166Z,28.04
2019-02-28T07:56:13.214Z,28.05
2019-02-28T07:56:58.393Z,27.39
2019-02-28T07:59:05.302Z,26.04
2019-02-28T08:00:05.566Z,25.46
2019-02-28T08:01:01.368Z,25.08
2019-02-28T08:01:59.952Z,24.90
2019-02-28T08:03:00.260Z,24.04
2019-02-28T08:06:39.204Z,23.20
2019-02-28T08:07:34.177Z,22.12
2019-02-28T08:09:53.490Z,20.95
2019-02-28T08:10:47.936Z,21.06
2019-02-28T08:11:37.506Z,20.96
2019-02-28T08:12:37.654Z,20.97
2019-02-28T08:13:58.688Z,20.49
2019-02-28T08:14:57.393Z,20.20
2019-02-28T08:15:53.313Z,20.31
2019-02-28T08:16:39.675Z,20.33
2019-02-28T08:17:57.474Z,20.24
2019-02-28T08:18:58.390Z,19.38
2019-02-28T08:19:36.637Z,18.21
2019-02-28T08:22:11.091Z,17.81
2019-02-28T08:22:57.781Z,18.29
2019-02-28T08:23:39.224Z,18.31
2019-02-28T08:24:37.248Z,20.12
2019-02-28T08:25:58.675Z,22.02
2019-02-28T08:26:43.744Z,23.22
2019-02-28T08:28:38.401Z,25.74
2019-02-28T08:29:38.086Z,26.76
2019-02-28T08:30:39.574Z,28.08
2019-02-28T08:32:06.579Z,29.39
2019-02-28T08:34:59.370Z,32.87
2019-02-28T08:36:11.624Z,33.72
2019-02-28T08:38:34.273Z,36.26
2019-02-28T08:39:19.211Z,36.91
2019-02-28T08:40:19.076Z,37.85
2019-02-28T08:41:18.864Z,38.70
2019-02-28T08:42:18.954Z,39.45
2019-02-28T08:43:26.853Z,40.38
2019-02-28T08:44:22.697Z,41.41
2019-02-28T08:45:25.858Z,41.80
2019-02-28T08:46:21.005Z,43.30
2019-02-28T08:47:21.113Z,44.74
2019-02-28T08:48:18.426Z,45.01
2019-02-28T08:49:21.965Z,45.58
2019-02-28T08:51:20.016Z,46.15
2019-02-28T08:52:18.519Z,46.34
2019-02-28T08:53:22.083Z,46.99
2019-02-28T08:54:27.236Z,47.37
2019-02-28T08:55:27.917Z,47.08
2019-02-28T08:56:28.451Z,47.44
2019-02-28T08:57:25.715Z,47.73
2019-02-28T08:58:18.289Z,48.59
2019-02-28T08:59:22.566Z,49.07
2019-02-28T09:00:18.283Z,49.33
2019-02-28T09:01:18.678Z,49.80
2019-02-28T09:02:19.058Z,49.99
2019-02-28T09:03:45.937Z,50.09
2019-02-28T09:04:18.112Z,51.04
2019-02-28T09:05:18.521Z,51.43
2019-02-28T09:06:18.447Z,51.68
2019-02-28T09:07:18.162Z,51.68
2019-02-28T09:08:18.177Z,52.07
2019-02-28T09:09:18.288Z,52.07
2019-02-28T09:10:20.145Z,52.64
2019-02-28T09:11:20.584Z,53.97
2019-02-28T09:12:20.247Z,54.14
2019-02-28T09:13:19.075Z,54.14
2019-02-28T09:14:19.066Z,53.95
2019-02-28T09:15:18.918Z,54.33
2019-02-28T09:16:18.639Z,54.90
2019-02-28T09:17:24.597Z,55.19
2019-02-28T09:18:39.183Z,55.92
2019-02-28T09:19:17.870Z,55.66
2019-02-28T09:21:19.080Z,55.66
2019-02-28T09:23:19.257Z,55.85
2019-02-28T09:24:18.157Z,55.85
2019-02-28T09:25:21.553Z,55.69
2019-02-28T09:27:40.212Z,54.10
2019-02-28T09:28:20.796Z,54.13
2019-02-28T09:29:21.077Z,53.65
2019-02-28T09:30:20.743Z,52.43
2019-02-28T09:31:21.276Z,52.08
2019-02-28T09:32:18.833Z,51.31
2019-02-28T09:33:41.122Z,51.50
2019-02-28T09:34:17.771Z,51.15
2019-02-28T09:35:17.763Z,50.38
2019-02-28T09:36:21.738Z,50.38
2019-02-28T09:37:29.466Z,50.64
2019-02-28T09:38:18.049Z,50.45
2019-02-28T09:39:38.710Z,50.93
2019-02-28T09:40:18.928Z,51.41
2019-02-28T09:41:40.180Z,51.48
2019-02-28T09:42:24.738Z,52.05
2019-02-28T09:43:19.760Z,52.40
2019-02-28T09:44:42.815Z,53.27
2019-02-28T09:45:33.720Z,53.45
2019-02-28T09:46:18.800Z,53.53
2019-02-28T09:47:17.600Z,54.10
2019-02-28T09:49:17.632Z,55.12
2019-02-28T09:50:42.090Z,55.98
2019-02-28T09:51:17.556Z,56.43
2019-02-28T09:52:24.433Z,56.62
2019-02-28T09:53:19.139Z,57.38
2019-02-28T09:54:21.450Z,57.45
2019-02-28T09:55:17.500Z,58.02
2019-02-28T09:56:44.468Z,58.02
2019-02-28T09:57:18.906Z,58.30
2019-02-28T09:58:19.167Z,58.87
2019-02-28T09:59:19.067Z,59.70
2019-02-28T10:00:18.020Z,59.70
2019-02-28T10:01:21.206Z,59.89
2019-02-28T10:02:43.371Z,60.08
2019-02-28T10:03:19.529Z,60.08
2019-02-28T10:04:30.482Z,59.89
2019-02-28T10:05:29.334Z,59.80
2019-02-28T10:06:17.474Z,60.08
2019-02-28T10:07:23.341Z,60.66
2019-02-28T10:09:17.764Z,60.56
2019-02-28T10:10:20.881Z,60.49
2019-02-28T10:11:17.811Z,60.59
2019-02-28T10:12:19.915Z,60.59
2019-02-28T10:14:53.423Z,59.92
2019-02-28T10:15:51.883Z,60.14
2019-02-28T10:16:52.706Z,59.28
2019-02-28T10:17:52.820Z,59.09
2019-02-28T10:18:51.898Z,58.94
2019-02-28T10:19:52.354Z,58.36
2019-02-28T10:20:53.441Z,57.98
2019-02-28T10:21:52.354Z,57.53
2019-02-28T10:22:52.234Z,56.80
2019-02-28T10:23:53.413Z,55.01
2019-02-28T10:24:54.392Z,54.18
2019-02-28T10:25:51.919Z,54.25
2019-02-28T10:26:52.869Z,54.15
2019-02-28T10:27:54.402Z,54.06
2019-02-28T10:28:56.572Z,54.06
2019-02-28T10:29:52.679Z,54.15
2019-02-28T10:30:59.050Z,53.86
2019-02-28T10:31:51.618Z,54.15
2019-02-28T10:32:52.768Z,54.18
2019-02-28T10:33:53.170Z,53.41
2019-02-28T10:34:51.495Z,53.13
2019-02-28T10:35:55.466Z,53.13
2019-02-28T10:36:53.473Z,53.13
2019-02-28T10:37:57.440Z,52.81
2019-02-28T10:38:51.894Z,53.49
2019-02-28T10:39:51.526Z,53.58
2019-02-28T10:40:54.119Z,54.03
2019-02-28T10:41:51.980Z,54.03
2019-02-28T10:42:52.457Z,54.70
2019-02-28T10:43:55.934Z,55.05
2019-02-28T10:44:54.662Z,55.43
2019-02-28T10:45:51.361Z,55.91
2019-02-28T10:46:53.798Z,55.88
2019-02-28T10:47:51.524Z,56.36
2019-02-28T10:48:52.334Z,57.22
2019-02-28T10:49:51.245Z,56.84
2019-02-28T10:50:51.431Z,57.70
2019-02-28T10:51:51.538Z,57.79
2019-02-28T10:52:52.893Z,57.98
2019-02-28T10:53:52.459Z,57.60
2019-02-28T10:54:53.857Z,58.46
2019-02-28T10:55:57.562Z,58.17
2019-02-28T10:56:51.591Z,58.55
2019-02-28T10:57:51.251Z,58.24
2019-02-28T10:58:53.838Z,58.43
2019-02-28T10:59:51.286Z,58.62
2019-02-28T11:00:51.326Z,58.91
2019-02-28T11:01:51.188Z,58.81
2019-02-28T11:02:56.502Z,58.81
2019-02-28T11:03:51.285Z,58.62
2019-02-28T11:06:51.251Z,58.72
2019-02-28T11:07:51.076Z,58.43
2019-02-28T11:08:52.020Z,59.09
2019-02-28T11:09:55.643Z,59.28
2019-02-28T11:10:51.030Z,59.19
2019-02-28T11:11:53.084Z,59.19
2019-02-28T11:13:52.890Z,58.91
2019-02-28T11:14:52.948Z,58.26
2019-02-28T11:15:50.912Z,58.46
2019-02-28T11:16:51.003Z,58.26
2019-02-28T11:17:52.907Z,58.07
2019-02-28T11:18:50.880Z,57.98
2019-02-28T11:19:52.017Z,57.98
2019-02-28T11:21:50.872Z,58.17
2019-02-28T11:22:52.958Z,58.36
2019-02-28T11:23:50.817Z,57.86
2019-02-28T11:24:51.080Z,58.24
2019-02-28T11:25:53.052Z,58.43
2019-02-28T11:26:52.566Z,58.43
2019-02-28T11:27:53.691Z,58.72
2019-02-28T11:28:53.594Z,58.81
2019-02-28T11:29:50.864Z,58.81
2019-02-28T11:30:50.720Z,59.00
2019-02-28T11:31:54.329Z,58.62
2019-02-28T11:32:50.788Z,58.91
2019-02-28T11:33:50.833Z,58.52
2019-02-28T11:34:52.463Z,58.46
2019-02-28T11:35:57.662Z,58.36
2019-02-28T11:36:52.435Z,57.98
2019-02-28T11:37:50.603Z,57.60
2019-02-28T11:38:52.518Z,57.98
2019-02-28T11:39:50.754Z,57.70
2019-02-28T11:40:57.064Z,57.31
2019-02-28T11:41:52.530Z,56.96
2019-02-28T11:42:50.807Z,57.34
2019-02-28T11:43:50.593Z,56.87
2019-02-28T11:45:51.565Z,56.87
2019-02-28T11:46:52.474Z,56.96
2019-02-28T11:47:51.583Z,57.41
2019-02-28T11:48:50.976Z,56.96
2019-02-28T11:49:51.526Z,57.15
2019-02-28T11:50:50.559Z,57.24
2019-02-28T11:51:53.080Z,56.48
2019-02-28T11:52:50.634Z,56.48
2019-02-28T11:53:51.579Z,56.67
2019-02-28T11:54:50.468Z,56.20
2019-02-28T11:55:53.372Z,55.91
2019-02-28T11:56:50.287Z,56.38
2019-02-28T11:57:50.336Z,55.91
2019-02-28T11:58:51.698Z,56.01
2019-02-28T11:59:50.299Z,56.01
2019-02-28T12:00:50.293Z,56.29
2019-02-28T12:01:50.481Z,56.36
2019-02-28T12:02:53.229Z,56.84
2019-02-28T12:03:50.492Z,57.31
2019-02-28T12:04:50.489Z,57.60
2019-02-28T12:05:51.265Z,57.89
2019-02-28T12:06:50.382Z,57.89
2019-02-28T12:07:50.337Z,58.55
2019-02-28T12:08:50.420Z,58.24
2019-02-28T12:09:51.438Z,58.81
2019-02-28T12:10:51.643Z,59.00
2019-02-28T12:11:50.153Z,59.67
2019-02-28T12:12:50.209Z,59.92
2019-02-28T12:13:51.684Z,60.40
2019-02-28T12:14:51.824Z,60.49
2019-02-28T12:15:51.406Z,60.69
2019-02-28T12:16:53.571Z,60.59
2019-02-28T12:17:50.264Z,61.25
2019-02-28T12:18:50.129Z,61.16
2019-02-28T12:19:51.390Z,61.73
2019-02-28T12:20:52.295Z,62.02
2019-02-28T12:21:52.117Z,61.83
2019-02-28T12:22:50.187Z,61.93
2019-02-28T12:23:51.119Z,61.64
2019-02-28T12:24:51.152Z,61.45
2019-02-28T12:25:50.498Z,62.02
2019-02-28T12:26:52.709Z,62.12
2019-02-28T12:27:52.128Z,62.02
2019-02-28T12:28:58.178Z,62.12
2019-02-28T12:29:51.184Z,62.02
2019-02-28T12:30:50.084Z,62.12
2019-02-28T12:31:50.108Z,62.02
2019-02-28T12:32:52.587Z,61.93
2019-02-28T12:33:53.327Z,61.73
2019-02-28T12:34:49.873Z,61.64
2019-02-28T12:35:49.863Z,61.83
2019-02-28T12:36:52.390Z,61.83
2019-02-28T12:37:49.875Z,61.57
2019-02-28T12:38:49.871Z,61.29
2019-02-28T12:39:49.850Z,61.29
2019-02-28T12:40:49.931Z,61.48
2019-02-28T12:41:51.538Z,60.91
2019-02-28T12:42:51.044Z,60.43
2019-02-28T12:43:49.686Z,59.95
2019-02-28T12:44:52.485Z,60.17
2019-02-28T12:45:49.776Z,59.89
2019-02-28T12:46:49.711Z,59.60
2019-02-28T12:47:52.307Z,59.03
2019-02-28T12:48:50.938Z,59.03
2019-02-28T12:49:49.970Z,59.70
2019-02-28T12:50:49.638Z,59.70
2019-02-28T12:51:50.991Z,60.14
2019-02-28T12:52:50.078Z,59.95
2019-02-28T12:53:49.538Z,60.24
2019-02-28T12:54:51.381Z,60.33
2019-02-28T12:55:50.722Z,60.72
2019-02-28T12:56:51.375Z,61.19
2019-02-28T12:57:51.546Z,61.54
2019-02-28T12:58:49.653Z,61.64
2019-02-28T12:59:49.511Z,61.54
2019-02-28T13:00:49.534Z,62.02
2019-02-28T13:01:51.368Z,62.02
2019-02-28T13:02:49.469Z,62.02
2019-02-28T13:03:54.614Z,62.40
2019-02-28T13:04:49.436Z,62.78
2019-02-28T13:05:49.597Z,62.49
2019-02-28T13:06:49.320Z,63.13
2019-02-28T13:07:49.284Z,63.23
2019-02-28T13:08:49.657Z,63.42
2019-02-28T13:09:51.440Z,63.23
2019-02-28T13:10:49.387Z,63.23
2019-02-28T13:11:49.272Z,63.60
2019-02-28T13:12:50.245Z,63.80
2019-02-28T13:13:49.305Z,63.80
2019-02-28T13:14:50.778Z,64.08
2019-02-28T13:15:50.746Z,63.89
2019-02-28T13:16:49.299Z,64.56
2019-02-28T13:17:50.316Z,64.05
2019-02-28T13:18:49.313Z,64.75
2019-02-28T13:19:53.288Z,64.56
2019-02-28T13:20:49.097Z,64.90
2019-02-28T13:21:49.238Z,65.00
2019-02-28T13:22:50.892Z,65.10
2019-02-28T13:23:49.221Z,65.10
2019-02-28T13:24:49.225Z,65.38
2019-02-28T13:25:49.060Z,65.19
2019-02-28T13:26:50.050Z,65.67
2019-02-28T13:27:50.919Z,66.24
2019-02-28T13:28:49.157Z,65.95
2019-02-28T13:29:49.043Z,65.86
2019-02-28T13:30:51.459Z,66.43
2019-02-28T13:31:49.080Z,66.33
2019-02-28T13:32:48.996Z,66.14
2019-02-28T13:33:52.680Z,66.62
2019-02-28T13:34:49.016Z,66.91
2019-02-28T13:35:50.856Z,66.87
2019-02-28T13:36:49.089Z,66.49
2019-02-28T13:37:50.849Z,66.78
2019-02-28T13:38:49.508Z,66.59
2019-02-28T13:39:51.085Z,66.68
2019-02-28T13:40:48.939Z,66.78
2019-02-28T13:41:48.976Z,66.68
2019-02-28T13:43:48.873Z,67.35
2019-02-28T13:44:48.800Z,67.35
2019-02-28T13:45:50.614Z,67.63
2019-02-28T13:46:50.659Z,67.54
2019-02-28T13:47:50.477Z,67.54
2019-02-28T13:48:50.518Z,67.44
2019-02-28T13:49:49.816Z,67.63
2019-02-28T13:50:48.731Z,68.11
2019-02-28T13:51:48.745Z,68.21
2019-02-28T13:52:52.270Z,68.11
2019-02-28T13:53:50.367Z,68.01
2019-02-28T13:54:49.751Z,67.92
2019-02-28T13:55:52.577Z,68.01
2019-02-28T13:56:50.351Z,67.63